createdAt,value
2023-01-12T04:40:20.597Z,8.70
2023-01-12T04:43:01.180Z,8.70
2023-01-12T04:45:29.161Z,8.70
2023-01-12T04:47:55.853Z,8.70
2023-01-12T04:50:22.530Z,8.80
2023-01-12T04:52:49.133Z,8.80
2023-01-12T04:55:15.975Z,8.70
2023-01-12T04:57:42.789Z,8.80
2023-01-12T05:00:10.143Z,8.80
2023-01-12T05:02:37.134Z,8.80
2023-01-12T05:05:05.353Z,8.90
2023-01-12T05:07:32.305Z,8.90
2023-01-12T05:10:18.014Z,8.80
2023-01-12T05:12:44.664Z,8.80
2023-01-12T05:15:11.406Z,8.80
2023-01-12T05:17:38.147Z,8.80
2023-01-12T05:20:05.391Z,8.90
2023-01-12T05:22:32.158Z,8.90
2023-01-12T05:24:58.827Z,8.90
2023-01-12T05:27:25.553Z,8.90
2023-01-12T05:29:52.739Z,8.90
2023-01-12T05:32:19.682Z,8.90
2023-01-12T05:34:46.287Z,8.90
2023-01-12T05:37:13.129Z,8.90
2023-01-12T05:39:39.890Z,8.90
2023-01-12T05:42:25.401Z,8.90
2023-01-12T05:44:52.357Z,8.90
2023-01-12T05:47:18.958Z,8.90
2023-01-12T05:49:45.575Z,8.90
2023-01-12T05:52:12.345Z,8.90
2023-01-12T05:54:39.060Z,8.90
2023-01-12T05:57:05.770Z,8.90
2023-01-12T05:59:32.965Z,8.90
2023-01-12T06:01:59.583Z,8.90
2023-01-12T06:04:26.428Z,8.90
2023-01-12T06:06:53.273Z,9.00
2023-01-12T06:09:19.953Z,9.00
2023-01-12T06:12:05.723Z,9.00
2023-01-12T06:14:32.654Z,9.00
2023-01-12T06:16:59.289Z,9.00
2023-01-12T06:19:25.934Z,9.00
2023-01-12T06:21:54.311Z,9.10
2023-01-12T06:24:21.777Z,9.00
2023-01-12T06:26:48.661Z,9.00
2023-01-12T06:29:15.347Z,9.10
2023-01-12T06:31:43.714Z,9.10
2023-01-12T06:34:11.985Z,9.20
2023-01-12T06:36:39.523Z,9.20
2023-01-12T06:39:06.149Z,9.20
2023-01-12T06:41:53.583Z,9.20
2023-01-12T06:44:20.299Z,9.20
2023-01-12T06:46:46.959Z,9.20
2023-01-12T06:49:13.746Z,9.30
2023-01-12T06:51:40.400Z,9.30
2023-01-12T06:54:07.180Z,9.30
2023-01-12T06:56:33.866Z,9.30
2023-01-12T06:59:00.476Z,9.40
2023-01-12T07:01:27.875Z,9.40
2023-01-12T07:03:54.658Z,9.40
2023-01-12T07:06:21.302Z,9.40
2023-01-12T07:08:47.970Z,9.40
2023-01-12T07:11:16.684Z,9.40
2023-01-12T07:13:43.398Z,9.40
2023-01-12T07:16:10.195Z,9.50
2023-01-12T07:18:37.020Z,9.50
2023-01-12T07:21:13.472Z,9.50
2023-01-12T07:23:43.630Z,9.50
2023-01-12T07:26:13.907Z,9.50
2023-01-12T07:28:40.927Z,9.50
2023-01-12T07:31:07.752Z,9.60
2023-01-12T07:33:35.018Z,9.60
2023-01-12T07:36:02.331Z,9.60
2023-01-12T07:38:30.284Z,9.60
2023-01-12T07:41:01.947Z,9.60
2023-01-12T07:43:29.436Z,9.60
2023-01-12T07:46:01.118Z,9.60
2023-01-12T07:48:27.903Z,9.70
2023-01-12T07:50:55.183Z,9.70
2023-01-12T07:53:22.012Z,9.70
2023-01-12T07:55:48.655Z,9.70
2023-01-12T07:58:15.603Z,9.80
2023-01-12T08:00:42.365Z,9.80
2023-01-12T08:03:11.794Z,9.90
2023-01-12T08:05:39.255Z,9.90
2023-01-12T08:08:07.032Z,9.90
2023-01-12T08:10:33.800Z,9.90
2023-01-12T08:13:00.520Z,9.90
2023-01-12T08:15:30.540Z,10.00
2023-01-12T08:18:06.855Z,10.00
2023-01-12T08:20:35.624Z,10.00
2023-01-12T08:23:17.769Z,10.00
2023-01-12T08:25:54.732Z,10.00
2023-01-12T08:28:27.186Z,10.00
2023-01-12T08:30:54.138Z,10.00
2023-01-12T08:33:21.244Z,10.00
2023-01-12T08:35:48.629Z,10.10
2023-01-12T08:38:15.648Z,10.00
2023-01-12T08:41:00.957Z,10.00
2023-01-12T08:43:46.144Z,10.00
2023-01-12T08:46:12.943Z,10.10
2023-01-12T08:48:40.009Z,10.10
2023-01-12T08:51:08.021Z,10.10
2023-01-12T08:53:36.444Z,10.10
2023-01-12T08:56:03.253Z,10.10
2023-01-12T08:58:32.189Z,10.10
2023-01-12T09:01:10.144Z,10.10
2023-01-12T09:03:37.776Z,10.10
2023-01-12T09:06:11.374Z,10.10
2023-01-12T09:08:38.112Z,10.10
2023-01-12T09:11:06.334Z,10.10
2023-01-12T09:13:34.434Z,10.10
2023-01-12T09:16:13.865Z,10.10
2023-01-12T09:18:41.591Z,10.10
2023-01-12T09:21:14.004Z,10.20
2023-01-12T09:23:41.080Z,10.20
2023-01-12T09:26:10.873Z,10.20
2023-01-12T09:28:38.096Z,10.20
2023-01-12T09:31:06.940Z,10.20
2023-01-12T09:33:34.595Z,10.20
2023-01-12T09:36:06.588Z,10.20
2023-01-12T09:38:36.441Z,10.20
2023-01-12T09:41:14.841Z,10.30
2023-01-12T09:44:00.540Z,10.30
2023-01-12T09:46:55.518Z,10.30
2023-01-12T09:49:28.965Z,10.30
2023-01-12T09:52:09.686Z,10.30
2023-01-12T09:54:36.643Z,10.40
2023-01-12T09:57:28.847Z,10.40
2023-01-12T10:00:03.351Z,10.40
2023-01-12T10:02:35.038Z,10.40
2023-01-12T10:05:08.079Z,10.50
2023-01-12T10:07:35.419Z,10.50
2023-01-12T10:10:03.582Z,10.50
2023-01-12T10:12:41.940Z,10.50
2023-01-12T10:15:23.042Z,10.60
2023-01-12T10:17:56.630Z,10.60
2023-01-12T10:20:37.649Z,10.60
2023-01-12T10:23:07.566Z,10.60
2023-01-12T10:25:41.962Z,10.60
2023-01-12T10:28:27.094Z,10.60
2023-01-12T10:30:56.449Z,10.50
2023-01-12T10:33:26.259Z,10.50
2023-01-12T10:35:54.892Z,10.50
2023-01-12T10:38:28.245Z,10.50
2023-01-12T10:41:09.937Z,10.50
2023-01-12T10:43:38.465Z,10.50
2023-01-12T10:46:16.854Z,10.50
2023-01-12T10:48:46.913Z,10.50
2023-01-12T10:51:22.367Z,10.60
2023-01-12T10:54:11.641Z,10.60
2023-01-12T10:56:41.667Z,10.60
2023-01-12T10:59:14.603Z,10.60
2023-01-12T11:01:51.924Z,10.60
2023-01-12T11:04:24.282Z,10.60
2023-01-12T11:07:02.205Z,10.50
2023-01-12T11:09:31.800Z,10.50
2023-01-12T11:12:04.254Z,10.50
2023-01-12T11:14:39.732Z,10.50
2023-01-12T11:17:37.187Z,10.50
2023-01-12T11:20:14.134Z,10.50
2023-01-12T11:22:42.793Z,10.50
2023-01-12T11:25:20.386Z,10.50
2023-01-12T11:27:55.766Z,10.50
2023-01-12T11:30:34.533Z,10.50
2023-01-12T11:33:15.186Z,10.50
2023-01-12T11:35:57.679Z,10.50
2023-01-12T11:38:47.165Z,10.50
2023-01-12T11:41:27.175Z,10.50
2023-01-12T11:44:03.794Z,10.50
2023-01-12T11:46:39.461Z,10.50
2023-01-12T11:49:22.598Z,10.50
2023-01-12T11:51:53.577Z,10.60
2023-01-12T11:54:20.294Z,10.50
2023-01-12T11:57:18.124Z,10.50
2023-01-12T12:00:06.716Z,10.50
2023-01-12T12:02:39.919Z,10.60
2023-01-12T12:05:12.604Z,10.60
2023-01-12T12:08:07.681Z,10.60
2023-01-12T12:10:43.399Z,10.60
2023-01-12T12:13:28.448Z,10.60
2023-01-12T12:16:17.874Z,10.60
2023-01-12T12:18:57.277Z,10.60
2023-01-12T12:21:43.474Z,10.60
2023-01-12T12:24:39.271Z,10.60
2023-01-12T12:27:19.621Z,10.60
2023-01-12T12:30:09.945Z,10.60
2023-01-12T12:33:10.423Z,10.60
2023-01-12T12:35:43.715Z,10.60
2023-01-12T12:38:26.732Z,10.60
2023-01-12T12:41:17.926Z,10.60
2023-01-12T12:44:10.070Z,10.60
2023-01-12T12:47:04.564Z,10.60
2023-01-12T12:49:32.924Z,10.60
2023-01-12T12:52:00.896Z,10.60
2023-01-12T12:54:29.118Z,10.60
2023-01-12T12:56:56.396Z,10.60
2023-01-12T12:59:56.890Z,10.60
2023-01-12T13:02:38.948Z,10.60
2023-01-12T13:05:08.568Z,10.70
2023-01-12T13:07:41.402Z,10.70
2023-01-12T13:10:30.931Z,10.70
2023-01-12T13:13:36.416Z,10.70
2023-01-12T13:16:18.199Z,10.70
2023-01-12T13:18:51.175Z,10.70
2023-01-12T13:21:27.084Z,10.70
2023-01-12T13:24:14.779Z,10.70
2023-01-12T13:26:46.098Z,10.70
2023-01-12T13:29:28.039Z,10.80
2023-01-12T13:31:59.938Z,10.70
2023-01-12T13:34:39.494Z,10.70
2023-01-12T13:37:19.690Z,10.80
2023-01-12T13:40:00.044Z,10.80
2023-01-12T13:42:47.077Z,10.80
2023-01-12T13:45:18.586Z,10.80
2023-01-12T13:47:47.612Z,10.80
2023-01-12T13:50:18.726Z,10.80
2023-01-12T13:52:55.403Z,10.80
2023-01-12T13:55:25.621Z,10.80
2023-01-12T13:58:16.649Z,10.80
2023-01-12T14:00:52.905Z,10.80
2023-01-12T14:03:34.521Z,10.80
2023-01-12T14:06:28.571Z,10.80
2023-01-12T14:09:08.879Z,10.80
2023-01-12T14:11:35.468Z,10.80
2023-01-12T14:14:40.916Z,10.80
2023-01-12T14:17:41.719Z,10.80
2023-01-12T14:20:20.007Z,10.80
2023-01-12T14:22:46.725Z,10.80
2023-01-12T14:25:20.405Z,10.80
2023-01-12T14:27:57.032Z,10.80
2023-01-12T14:30:26.848Z,10.80
2023-01-12T14:32:55.234Z,10.80
2023-01-12T14:35:24.817Z,10.80
2023-01-12T14:37:54.959Z,10.80
2023-01-12T14:40:28.300Z,10.80
2023-01-12T14:43:14.081Z,10.80
2023-01-12T14:46:24.463Z,10.70
2023-01-12T14:49:00.934Z,10.70
2023-01-12T14:51:35.815Z,10.80
2023-01-12T14:54:08.430Z,10.70
2023-01-12T14:56:41.338Z,10.80
2023-01-12T14:59:24.731Z,10.80
2023-01-12T15:02:14.611Z,10.80
2023-01-12T15:05:10.359Z,10.80
2023-01-12T15:07:39.790Z,10.80
2023-01-12T15:10:09.514Z,10.80
2023-01-12T15:12:43.877Z,10.80
2023-01-12T15:15:16.725Z,10.70
2023-01-12T15:18:02.617Z,10.70
2023-01-12T15:20:51.655Z,10.70
2023-01-12T15:23:37.141Z,10.70
2023-01-12T15:26:03.817Z,10.70
2023-01-12T15:28:31.261Z,10.70
2023-01-12T15:30:58.623Z,10.70
2023-01-12T15:33:25.310Z,10.70
2023-01-12T15:35:52.089Z,10.70
2023-01-12T15:38:18.930Z,10.70
2023-01-12T15:40:47.852Z,10.70
2023-01-12T15:43:16.223Z,10.70
2023-01-12T15:45:47.374Z,10.70
2023-01-12T15:48:14.404Z,10.60
2023-01-12T15:50:43.436Z,10.60
2023-01-12T15:53:21.404Z,10.60
2023-01-12T15:55:48.868Z,10.60
2023-01-12T15:58:16.880Z,10.60
2023-01-12T16:00:44.863Z,10.60
2023-01-12T16:03:32.188Z,10.60
2023-01-12T16:05:59.543Z,10.60
2023-01-12T16:08:26.235Z,10.50
2023-01-12T16:11:12.095Z,10.50
2023-01-12T16:13:39.359Z,10.50
2023-01-12T16:16:07.872Z,10.50
2023-01-12T16:18:35.303Z,10.50
2023-01-12T16:21:02.411Z,10.50
2023-01-12T16:23:29.128Z,10.50
2023-01-12T16:25:57.082Z,10.50
2023-01-12T16:28:24.466Z,10.50
2023-01-12T16:30:51.920Z,10.50
2023-01-12T16:33:19.344Z,10.50
2023-01-12T16:35:46.160Z,10.60
2023-01-12T16:38:16.981Z,10.50
2023-01-12T16:40:45.151Z,10.50
2023-01-12T16:43:12.121Z,10.60
2023-01-12T16:45:42.492Z,10.60
2023-01-12T16:48:09.246Z,10.60
2023-01-12T16:50:39.829Z,10.50
2023-01-12T16:53:07.287Z,10.60
2023-01-12T16:55:36.572Z,10.60
2023-01-12T16:58:05.275Z,10.50
2023-01-12T17:00:33.325Z,10.60
2023-01-12T17:03:02.601Z,10.60
2023-01-12T17:05:29.885Z,10.60
2023-01-12T17:07:56.695Z,10.60
2023-01-12T17:10:23.708Z,10.60
2023-01-12T17:12:58.044Z,10.60
2023-01-12T17:15:28.761Z,10.50
2023-01-12T17:17:56.028Z,10.60
2023-01-12T17:20:22.957Z,10.60
2023-01-12T17:22:50.670Z,10.60
2023-01-12T17:25:17.505Z,10.60
2023-01-12T17:27:44.283Z,10.60
2023-01-12T17:30:11.490Z,10.60
2023-01-12T17:32:38.176Z,10.50
2023-01-12T17:35:07.828Z,10.50
2023-01-12T17:37:34.634Z,10.50
2023-01-12T17:40:01.377Z,10.50
2023-01-12T17:42:46.465Z,10.50
2023-01-12T17:45:13.117Z,10.50
2023-01-12T17:47:39.879Z,10.50
2023-01-12T17:50:07.551Z,10.50
2023-01-12T17:52:34.680Z,10.50
2023-01-12T17:55:01.372Z,10.50
2023-01-12T17:57:28.337Z,10.40
2023-01-12T17:59:55.039Z,10.40
2023-01-12T18:02:21.765Z,10.40
2023-01-12T18:04:48.678Z,10.50
2023-01-12T18:07:15.311Z,10.50
2023-01-12T18:09:41.985Z,10.50
2023-01-12T18:12:10.481Z,10.60
2023-01-12T18:14:37.529Z,10.60
2023-01-12T18:17:04.398Z,10.60
2023-01-12T18:19:31.103Z,10.60
2023-01-12T18:21:57.763Z,10.60
2023-01-12T18:24:24.403Z,10.60
2023-01-12T18:26:51.089Z,10.60
2023-01-12T18:29:17.757Z,10.60
2023-01-12T18:31:47.236Z,10.70
2023-01-12T18:34:16.727Z,10.70
2023-01-12T18:36:43.641Z,10.60
2023-01-12T18:39:17.663Z,10.60
2023-01-12T18:42:03.411Z,10.60
2023-01-12T18:44:31.535Z,10.60
2023-01-12T18:47:17.766Z,10.60
2023-01-12T18:49:48.950Z,10.60
2023-01-12T18:52:35.296Z,10.60
2023-01-12T18:55:02.727Z,10.60
2023-01-12T18:57:31.477Z,10.50
2023-01-12T19:00:09.954Z,10.60
2023-01-12T19:02:36.650Z,10.60
2023-01-12T19:05:12.320Z,10.60
2023-01-12T19:07:57.487Z,10.60
2023-01-12T19:10:24.672Z,10.60
2023-01-12T19:13:11.228Z,10.50
2023-01-12T19:15:56.905Z,10.50
2023-01-12T19:18:23.572Z,10.60
2023-01-12T19:20:50.251Z,10.50
2023-01-12T19:23:35.749Z,10.60
2023-01-12T19:26:21.602Z,10.50
2023-01-12T19:28:48.467Z,10.60
2023-01-12T19:31:19.353Z,10.50
2023-01-12T19:33:45.993Z,10.60
2023-01-12T19:36:15.878Z,10.60
2023-01-12T19:38:50.643Z,10.60
2023-01-12T19:41:36.001Z,10.60
2023-01-12T19:44:05.367Z,10.60
2023-01-12T19:46:33.171Z,10.60
2023-01-12T19:48:59.885Z,10.60
2023-01-12T19:51:26.521Z,10.60
2023-01-12T19:53:53.149Z,10.60
2023-01-12T19:56:19.802Z,10.60
2023-01-12T19:58:46.417Z,10.60
2023-01-12T20:01:23.348Z,10.60
2023-01-12T20:03:50.771Z,10.50
2023-01-12T20:06:17.918Z,10.50
2023-01-12T20:08:44.615Z,10.50
2023-01-12T20:11:11.701Z,10.50
2023-01-12T20:13:38.337Z,10.50
2023-01-12T20:16:07.101Z,10.40
2023-01-12T20:18:33.730Z,10.40
2023-01-12T20:21:00.950Z,10.40
2023-01-12T20:23:27.577Z,10.40
2023-01-12T20:25:54.312Z,10.40
2023-01-12T20:28:20.993Z,10.40
2023-01-12T20:30:47.600Z,10.50
2023-01-12T20:33:14.215Z,10.40
2023-01-12T20:35:46.514Z,10.50
2023-01-12T20:38:15.728Z,10.40
2023-01-12T20:40:44.320Z,10.40
2023-01-12T20:43:12.171Z,10.50
2023-01-12T20:45:40.455Z,10.50
2023-01-12T20:48:07.270Z,10.50
2023-01-12T20:50:33.915Z,10.50
2023-01-12T20:53:00.553Z,10.50
2023-01-12T20:55:27.220Z,10.50
2023-01-12T20:57:53.836Z,10.50
2023-01-12T21:00:20.613Z,10.50
2023-01-12T21:02:47.243Z,10.40
2023-01-12T21:05:13.866Z,10.40
2023-01-12T21:07:40.423Z,10.40
2023-01-12T21:10:09.008Z,10.30
2023-01-12T21:12:35.628Z,10.20
2023-01-12T21:15:03.874Z,10.20
2023-01-12T21:17:31.652Z,10.20
2023-01-12T21:19:58.390Z,10.10
2023-01-12T21:22:25.023Z,10.10
2023-01-12T21:24:51.621Z,10.10
2023-01-12T21:27:18.254Z,10.20
2023-01-12T21:29:45.871Z,10.20
2023-01-12T21:32:12.511Z,10.10
2023-01-12T21:34:39.130Z,10.20
2023-01-12T21:37:05.718Z,10.20
2023-01-12T21:39:32.489Z,10.20
2023-01-12T21:42:17.690Z,10.20
2023-01-12T21:44:44.604Z,10.20
2023-01-12T21:47:11.333Z,10.30
2023-01-12T21:49:38.003Z,10.20
2023-01-12T21:52:04.813Z,10.20
2023-01-12T21:54:31.907Z,10.30
2023-01-12T21:56:58.987Z,10.30
2023-01-12T21:59:25.631Z,10.30
2023-01-12T22:01:52.365Z,10.30
2023-01-12T22:04:19.135Z,10.20
2023-01-12T22:06:45.742Z,10.20
2023-01-12T22:09:12.528Z,10.20
2023-01-12T22:11:39.121Z,10.10
2023-01-12T22:35:35.793Z,10.00
2023-01-12T22:38:02.636Z,10.00
2023-01-12T22:40:30.261Z,10.00
2023-01-12T22:43:15.523Z,10.00
2023-01-12T22:45:42.154Z,9.90
2023-01-12T22:48:08.849Z,9.90
2023-01-12T22:50:35.523Z,9.90
2023-01-12T22:53:02.375Z,9.80
2023-01-12T22:55:29.340Z,9.80
2023-01-12T22:57:55.937Z,9.90
2023-01-12T23:00:22.688Z,9.90
2023-01-12T23:03:01.800Z,9.90
2023-01-12T23:05:35.968Z,9.90
2023-01-12T23:08:05.536Z,9.80
2023-01-12T23:10:32.569Z,9.80
2023-01-12T23:13:11.613Z,9.90
2023-01-12T23:15:39.505Z,9.90
2023-01-12T23:18:07.378Z,9.90
2023-01-12T23:20:36.124Z,9.90
2023-01-12T23:23:03.965Z,9.90
2023-01-12T23:25:32.801Z,9.90
2023-01-12T23:28:00.282Z,9.80
2023-01-12T23:30:30.777Z,9.80
2023-01-12T23:33:03.840Z,9.70
2023-01-12T23:35:35.730Z,9.60
2023-01-12T23:38:02.553Z,9.50
2023-01-12T23:40:29.223Z,9.40
2023-01-12T23:42:55.881Z,9.40
2023-01-12T23:45:23.893Z,9.30
2023-01-12T23:47:50.997Z,9.30
2023-01-12T23:50:17.818Z,9.20
2023-01-12T23:52:44.810Z,9.20
2023-01-12T23:55:14.372Z,9.10
2023-01-12T23:57:41.013Z,9.10
